Main page
METAR-TAF:

METAR-TAF

Airports :

Guernsey,

Guernsey Airport

latitude: 49-26N, longitude: 002-36W, elevation: 102 m

Current weather observation

The report was made 6 hours and 7 minutes ago, at 19:50 UTC
Wind 6 kt from the Northeast
Temperature 14°C
Humidity 72%
Pressure 1022 hPa
Visibility 10 km or more
no clouds below 1500 m and no cumulonimbus

METAR: EGJB 201950Z 05006KT CAVOK 14/09 Q1022

Time: 02:57 (01:57 UTC)

Forecast

The report was made 3 hours and 0 minutes ago, at 22:57 UTC
Forecast valid from 21 at 00 UTC to 21 at 09 UTC
Wind 7 kt from the East/Southeast
Visibility 10 km or more
no clouds below 1500 m and no cumulonimbus

TAF: EGJB 202257Z 2100/2109 11007KT CAVOK

Weather observations and forecasts of more than 4000 airports (METAR and TAF reports).

The available stations are represented by yellow and red dots on the map.

Hover mouse over dot to see the name of the station.

Then click to see weather observations and forecasts.

To change the map : click on the green buttons with a black cross to zoom in, on the green button with a dash to zoom out, or on the green arrows for adjacent maps.


METAR-TAF: